Aviation Digital Data Service (ADDS)

Output produced by METARs form (0810 UTC 24 May 2018)
found at http://www.aviationweather.gov/adds/metars/
 
LKCV 240800Z 07011KT CAVOK 21/14 Q1020 NOSIG RMK BLU BLU
TAF LKCV 240500Z 2406/2506 07005KT CAVOK 
     BECMG 2408/2410 07010KT 
     TEMPO 2410/2418 09010G22KT SCT040TCU 
     PROB30 2410/2414 5000 TSRA SCT035CB
       
LKCV 240800Z 07011KT CAVOK 21/14 Q1020 NOSIG RMK BLU BLU
TAF LKCV 240500Z 2406/2506 07005KT CAVOK 
     BECMG 2408/2410 07010KT 
     TEMPO 2410/2418 09010G22KT SCT040TCU 
     PROB30 2410/2414 5000 TSRA SCT035CB
       
LKKB 240800Z 07009KT 030V100 CAVOK 20/14 Q1020 NOSIG
TAF LKKB 240500Z 2406/2506 06010KT CAVOK 
     BECMG 2409/2411 SCT045 
     TEMPO 2413/2422 15010G20KT 6000 SHRA SCT028 BKN045 
     TEMPO 2417/2422 4000 TSRA SCT025CB BKN040 
     BECMG 2418/2420 34004KT 
     TEMPO 2504/2506 6000 RA SCT025 BKN040
       
LKKU 240700Z 36009KT 9999 FEW026TCU 20/14 Q1019
LKKV 240800Z 06005KT 9999 -TSRA SCT015CB BKN036 14/13 Q1021
TAF LKKV 240500Z 2406/2512 06008KT 9999 SCT030 
     TEMPO 2406/2512 8000 SHRA SCT025TCU 
     PROB40 
     TEMPO 2406/2422 15014G28KT 3000 TSRA SCT015CB BKN020 
     PROB40 
     TEMPO 2508/2512 15014G28KT 3000 TSRA SCT015CB BKN020
       
LKLN 240800Z AUTO 04004KT 320V100 9999 FEW006 OVC088 17/16 Q1020
LKMT 240800Z 03012KT 360V060 9999 FEW026 20/13 Q1021 NOSIG
TAF LKMT 240500Z 2406/2512 04008KT CAVOK 
     TEMPO 2406/2421 04013G26KT 
     PROB30 
     TEMPO 2412/2418 8000 SHRA SCT025TCU
       
LKNA 240800Z 05007KT 030V090 CAVOK 20/14 Q1020 NOSIG RMK BLU BLU
TAF LKNA 240500Z 2406/2506 06008KT CAVOK 
     BECMG 2409/2412 BKN030 
     TEMPO 2412/2418 7000 SHRA SCT030TCU BKN035 
     TEMPO 2500/2506 6000 SHRA SCT035TCU BKN040
       
LKPD 240800Z 09008KT CAVOK 22/13 Q1020 NOSIG RMK BLU BLU
TAF LKPD 240500Z 2406/2506 09008KT CAVOK 
     PROB30 
     TEMPO 2410/2416 09014G24KT 5000 TSRA SCT030CB
       
LKPR 240800Z 08012KT CAVOK 19/14 Q1020 NOSIG
TAF AMD LKPR 240607Z 2406/2512 05010KT 9999 SCT040 
     TEMPO 2408/2512 8000 SHRA SCT030TCU 
     PROB30 
     TEMPO 2409/2421 15014G30KT 4000 TSRA SCT020CB BKN025 
     PROB40 
     TEMPO 2509/2512 15014G30KT 4000 TSRA SCT020CB BKN025
       
LKTB 240800Z 08012KT 9999 FEW025 21/15 Q1020 NOSIG
TAF LKTB 240500Z 2406/2512 04008KT CAVOK 
     TEMPO 2406/2418 10013G26KT 
     PROB30 
     TEMPO 2411/2422 5000 TSRA SCT025CB 
     TEMPO 2422/2512 8000 SHRA FEW035TCU 
     PROB30 
     TEMPO 2510/2512 5000 TSRA SCT025CB
       
LKVO 240700Z 09011KT 060V140 CAVOK 19/13 Q1021
LKKV 240800Z 06005KT 9999 -TSRA SCT015CB BKN036 14/13 Q1021
TAF LKKV 240500Z 2406/2512 06008KT 9999 SCT030 
     TEMPO 2406/2512 8000 SHRA SCT025TCU 
     PROB40 
     TEMPO 2406/2422 15014G28KT 3000 TSRA SCT015CB BKN020 
     PROB40 
     TEMPO 2508/2512 15014G28KT 3000 TSRA SCT015CB BKN020
       
LKKB 240800Z 07009KT 030V100 CAVOK 20/14 Q1020 NOSIG
TAF LKKB 240500Z 2406/2506 06010KT CAVOK 
     BECMG 2409/2411 SCT045 
     TEMPO 2413/2422 15010G20KT 6000 SHRA SCT028 BKN045 
     TEMPO 2417/2422 4000 TSRA SCT025CB BKN040 
     BECMG 2418/2420 34004KT 
     TEMPO 2504/2506 6000 RA SCT025 BKN040
       
LKKU 240700Z 36009KT 9999 FEW026TCU 20/14 Q1019
LKLN 240800Z AUTO 04004KT 320V100 9999 FEW006 OVC088 17/16 Q1020
LKMT 240800Z 03012KT 360V060 9999 FEW026 20/13 Q1021 NOSIG
TAF LKMT 240500Z 2406/2512 04008KT CAVOK 
     TEMPO 2406/2421 04013G26KT 
     PROB30 
     TEMPO 2412/2418 8000 SHRA SCT025TCU
       
LKNA 240800Z 05007KT 030V090 CAVOK 20/14 Q1020 NOSIG RMK BLU BLU
TAF LKNA 240500Z 2406/2506 06008KT CAVOK 
     BECMG 2409/2412 BKN030 
     TEMPO 2412/2418 7000 SHRA SCT030TCU BKN035 
     TEMPO 2500/2506 6000 SHRA SCT035TCU BKN040
       
LKPD 240800Z 09008KT CAVOK 22/13 Q1020 NOSIG RMK BLU BLU
TAF LKPD 240500Z 2406/2506 09008KT CAVOK 
     PROB30 
     TEMPO 2410/2416 09014G24KT 5000 TSRA SCT030CB
       
LKPR 240800Z 08012KT CAVOK 19/14 Q1020 NOSIG
TAF AMD LKPR 240607Z 2406/2512 05010KT 9999 SCT040 
     TEMPO 2408/2512 8000 SHRA SCT030TCU 
     PROB30 
     TEMPO 2409/2421 15014G30KT 4000 TSRA SCT020CB BKN025 
     PROB40 
     TEMPO 2509/2512 15014G30KT 4000 TSRA SCT020CB BKN025
       
LKTB 240800Z 08012KT 9999 FEW025 21/15 Q1020 NOSIG
TAF LKTB 240500Z 2406/2512 04008KT CAVOK 
     TEMPO 2406/2418 10013G26KT 
     PROB30 
     TEMPO 2411/2422 5000 TSRA SCT025CB 
     TEMPO 2422/2512 8000 SHRA FEW035TCU 
     PROB30 
     TEMPO 2510/2512 5000 TSRA SCT025CB
       
LKVO 240700Z 09011KT 060V140 CAVOK 19/13 Q1021